Bradford County (N27)
Towanda, PA
Field Elevation: 730
Lat: 41°44.40N  Long: 76°26.83W
CTAF/Unicom Freq: 123.0000
   
     For Weather-by-Phone, call (570) 265-1024
Weather Advisories
2020-05-31   15:14 Z
Altimeter 30.18" Hg
Wind 010° @ 10 KT
Gusts 14 KT
Visibility 10 SM
Ceiling BKN050
Temperature 13° C (55° F)
Dewpoint 2° C (36° F)
Relative Humidity 46%
Density Altitude --
Condensation Altitude 6,300 feet
Wind and Runways
Indicated Runway = 05
Headwind = 8 kt
Crosswind = 6 kt
History
 
 
 
More Info
All DigiWx sites map
NOAA Forecast
 
Airport IQ 5010
(LHV) Lock Haven
(PS81) Robert Packer Hospital
 
about DigiWx
 
FAA Disclaimer: The data displayed is for advisory purposes only and is not to be used for flight planning or operations. For official data, please call (570) 265-1024 to hear the current automated AWOS voice message.
  METAR N27 311514Z AUTO 01010G14KT 10 SM BKN050 13/02 A3018